Time;durP1;ratioP1;P1;durP2;ratioP2;P2;SDS_P1;SDS_P2;PMS_P1;PMS_P2;Temp;Humidity;BMP_temperature;BMP_pressure;BME280_temperature;BME280_humidity;BME280_pressure;Samples;Min_cycle;Max_cycle;Signal;HPM_P1;HPM_P2
2023/06/11 00:01:52;;;;;;;14.15;9.00;;;;;;;21.88;100.00;100314.47;5118290;28;20110;-73
2023/06/11 00:04:38;;;;;;;13.52;9.13;;;;;;;21.80;100.00;100318.63;5132917;27;20026;-72
2023/06/11 00:07:23;;;;;;;15.13;9.38;;;;;;;21.93;100.00;100317.66;5129804;27;20368;-72
2023/06/11 00:10:09;;;;;;;14.63;9.40;;;;;;;22.03;100.00;100310.72;5172910;27;20021;-72
2023/06/11 00:12:55;;;;;;;14.40;9.35;;;;;;;21.79;100.00;100308.94;5178223;27;20129;-72
2023/06/11 00:15:41;;;;;;;14.32;9.80;;;;;;;21.92;100.00;100313.31;5159795;27;20029;-72
2023/06/11 00:18:26;;;;;;;13.82;9.20;;;;;;;21.80;100.00;100308.81;5158404;27;20034;-73
2023/06/11 00:21:14;;;;;;;23.20;9.73;;;;;;;21.60;100.00;100305.78;5159527;27;20039;-72
2023/06/11 00:23:59;;;;;;;13.68;9.23;;;;;;;21.84;100.00;100314.78;5165259;27;20029;-72
2023/06/11 00:26:45;;;;;;;12.93;8.90;;;;;;;21.76;100.00;100314.47;5161023;27;20177;-72
2023/06/11 00:29:31;;;;;;;13.00;9.02;;;;;;;21.89;100.00;100316.19;5158117;27;20033;-72
2023/06/11 00:32:17;;;;;;;12.50;9.32;;;;;;;20.94;100.00;100315.69;5157780;27;20022;-73
2023/06/11 00:35:08;;;;;;;12.75;10.10;;;;;;;21.04;100.00;100309.66;5152571;27;20405;-73
2023/06/11 00:37:55;;;;;;;11.07;8.75;;;;;;;21.19;100.00;100305.97;5157165;27;20038;-74
2023/06/11 00:40:40;;;;;;;15.27;9.77;;;;;;;20.87;100.00;100322.34;5143002;27;20448;-72
2023/06/11 00:43:26;;;;;;;11.85;9.30;;;;;;;20.81;100.00;100320.09;5157981;27;20095;-73
2023/06/11 00:46:12;;;;;;;12.15;8.85;;;;;;;21.00;100.00;100321.47;5158352;27;20083;-71
2023/06/11 00:48:58;;;;;;;14.40;10.40;;;;;;;20.99;100.00;100326.88;5157985;27;20023;-72
2023/06/11 00:51:45;;;;;;;16.95;10.00;;;;;;;20.93;100.00;100330.81;5157090;27;20034;-71
2023/06/11 00:54:32;;;;;;;14.73;9.98;;;;;;;20.93;100.00;100322.81;5156692;27;20023;-72
2023/06/11 00:57:22;;;;;;;15.93;9.77;;;;;;;20.89;100.00;100336.41;5158020;27;20030;-71
2023/06/11 01:00:13;;;;;;;12.98;9.45;;;;;;;20.88;100.00;100334.69;5143046;27;20026;-72
2023/06/11 01:03:07;;;;;;;13.85;9.80;;;;;;;19.65;100.00;100332.78;5158281;27;20060;-73
2023/06/11 01:06:11;;;;;;;15.57;10.43;;;;;;;19.43;100.00;100345.66;5158411;27;20027;-73
2023/06/11 01:08:59;;;;;;;13.50;9.57;;;;;;;19.20;100.00;100349.66;5157293;27;20023;-73
2023/06/11 01:11:48;;;;;;;16.10;10.13;;;;;;;19.30;100.00;100349.13;5158240;27;20375;-71
2023/06/11 01:14:34;;;;;;;14.02;10.30;;;;;;;19.40;100.00;100359.13;5143500;27;20027;-72
2023/06/11 01:17:40;;;;;;;14.90;9.93;;;;;;;19.99;100.00;100353.72;5147695;27;20026;-72
2023/06/11 01:20:39;;;;;;;14.38;9.93;;;;;;;20.11;100.00;100357.44;5157687;27;20111;-73
2023/06/11 01:24:04;;;;;;;15.95;10.05;;;;;;;20.23;100.00;100362.00;5157818;27;20022;-73
2023/06/11 01:27:09;;;;;;;13.52;9.75;;;;;;;20.15;100.00;100357.19;5156956;27;20041;-72
2023/06/11 01:29:58;;;;;;;15.32;9.80;;;;;;;20.13;100.00;100358.22;5156943;27;20375;-72
2023/06/11 01:32:55;;;;;;;20.20;10.32;;;;;;;19.92;100.00;100371.00;5157719;27;20018;-73
2023/06/11 01:35:42;;;;;;;13.70;9.63;;;;;;;19.78;100.00;100362.16;5157157;27;20090;-72
2023/06/11 01:38:34;;;;;;;14.05;9.70;;;;;;;19.68;100.00;100356.53;5156291;27;20022;-72
2023/06/11 01:41:20;;;;;;;14.45;9.43;;;;;;;20.10;100.00;100361.06;5147935;27;20037;-71
2023/06/11 01:44:06;;;;;;;15.35;9.82;;;;;;;19.95;100.00;100368.16;5157242;27;20071;-71
2023/06/11 01:46:51;;;;;;;14.57;10.23;;;;;;;20.13;100.00;100369.72;5157604;27;20339;-72
2023/06/11 01:49:37;;;;;;;15.75;9.35;;;;;;;19.69;100.00;100358.22;5156955;27;20022;-70
2023/06/11 01:52:24;;;;;;;14.27;9.13;;;;;;;19.88;100.00;100364.16;5141216;27;20464;-72
2023/06/11 01:55:10;;;;;;;12.50;9.48;;;;;;;19.65;100.00;100362.03;5155961;27;20058;-73
2023/06/11 01:57:56;;;;;;;17.17;9.55;;;;;;;19.60;100.00;100369.44;5156190;27;20031;-73
2023/06/11 02:00:42;;;;;;;13.50;9.00;;;;;;;19.82;100.00;100371.66;5156085;27;20050;-72
2023/06/11 02:03:28;;;;;;;13.32;9.77;;;;;;;20.07;100.00;100378.03;5156566;27;20029;-72
2023/06/11 02:06:13;;;;;;;14.27;9.07;;;;;;;20.11;100.00;100368.09;5156063;27;20037;-72
2023/06/11 02:08:59;;;;;;;13.60;9.57;;;;;;;20.32;100.00;100364.09;5155553;27;20026;-73
2023/06/11 02:11:45;;;;;;;17.98;9.70;;;;;;;20.18;100.00;100369.44;5156306;27;20443;-73
2023/06/11 02:14:30;;;;;;;15.25;9.95;;;;;;;19.36;100.00;100362.91;5156033;27;20490;-72
2023/06/11 02:17:16;;;;;;;14.35;9.80;;;;;;;19.21;100.00;100366.47;5156983;27;20475;-71
2023/06/11 02:20:05;;;;;;;13.73;9.32;;;;;;;19.72;100.00;100366.03;5141206;27;20383;-72
2023/06/11 02:22:51;;;;;;;14.30;10.13;;;;;;;19.92;100.00;100375.44;5155712;27;20364;-72
2023/06/11 02:25:37;;;;;;;13.15;9.43;;;;;;;20.07;100.00;100380.72;5156928;27;20397;-73
2023/06/11 02:28:23;;;;;;;12.68;9.27;;;;;;;20.00;100.00;100376.69;5155350;27;20037;-71
2023/06/11 02:31:08;;;;;;;17.17;9.20;;;;;;;19.89;100.00;100391.63;5155861;27;20071;-72
2023/06/11 02:33:54;;;;;;;12.25;9.48;;;;;;;19.64;100.00;100392.22;5141355;27;20033;-72
2023/06/11 02:36:40;;;;;;;15.02;9.30;;;;;;;19.48;100.00;100391.41;5155976;27;20041;-72
2023/06/11 02:39:26;;;;;;;13.52;10.18;;;;;;;19.99;100.00;100395.41;5155861;27;20033;-71
2023/06/11 02:42:12;;;;;;;13.85;9.23;;;;;;;20.13;100.00;100404.28;5155780;27;20026;-72
2023/06/11 02:44:58;;;;;;;15.85;9.10;;;;;;;19.93;100.00;100423.22;5156312;27;20037;-72
2023/06/11 02:47:43;;;;;;;12.02;9.55;;;;;;;19.81;100.00;100442.56;5154490;27;20118;-71
2023/06/11 02:50:29;;;;;;;14.10;9.30;;;;;;;19.94;100.00;100443.56;5155271;27;20063;-72
2023/06/11 02:53:15;;;;;;;14.85;9.18;;;;;;;20.04;100.00;100428.75;5140761;27;20117;-72
2023/06/11 02:56:00;;;;;;;13.57;9.18;;;;;;;20.32;100.00;100441.25;5154387;27;20023;-72
2023/06/11 02:58:47;;;;;;;11.90;9.10;;;;;;;20.02;100.00;100437.78;5140444;27;20359;-71
2023/06/11 03:01:33;;;;;;;16.65;9.60;;;;;;;20.24;100.00;100441.75;5139902;27;20023;-72
2023/06/11 03:04:18;;;;;;;13.88;9.50;;;;;;;20.29;100.00;100431.66;5139942;27;20035;-71
2023/06/11 03:07:04;;;;;;;14.13;9.10;;;;;;;20.16;100.00;100438.69;5155241;27;20027;-72
2023/06/11 03:09:50;;;;;;;12.98;9.02;;;;;;;20.17;100.00;100437.72;5156479;27;20082;-72
2023/06/11 03:12:35;;;;;;;13.45;9.07;;;;;;;19.59;100.00;100431.50;5140397;27;20034;-72
2023/06/11 03:15:21;;;;;;;13.00;9.43;;;;;;;19.07;100.00;100417.69;5155327;27;20030;-72
2023/06/11 03:18:07;;;;;;;14.27;8.57;;;;;;;19.49;100.00;100432.16;5141365;27;20113;-71
2023/06/11 03:20:53;;;;;;;16.00;8.70;;;;;;;19.71;100.00;100433.44;5135074;27;20046;-72
2023/06/11 03:23:38;;;;;;;12.35;9.25;;;;;;;19.80;100.00;100418.75;5119671;28;20042;-72
2023/06/11 03:26:25;;;;;;;13.90;9.60;;;;;;;19.27;100.00;100431.66;5134610;27;20020;-72
2023/06/11 03:29:11;;;;;;;13.88;9.88;;;;;;;19.64;100.00;100426.78;5119967;28;20049;-72
2023/06/11 03:31:57;;;;;;;13.13;9.80;;;;;;;19.82;100.00;100428.34;5134314;28;20035;-72
2023/06/11 03:34:43;;;;;;;13.55;9.50;;;;;;;19.82;100.00;100427.50;5134019;28;20041;-72
2023/06/11 03:37:29;;;;;;;13.82;9.95;;;;;;;19.68;100.00;100435.44;5134201;28;20023;-72
2023/06/11 03:40:15;;;;;;;17.55;9.98;;;;;;;20.45;100.00;100434.25;5135143;28;20027;-72
2023/06/11 03:43:01;;;;;;;14.82;9.95;;;;;;;20.17;100.00;100435.06;5119618;28;20116;-72
2023/06/11 03:45:46;;;;;;;14.75;10.38;;;;;;;19.82;100.00;100436.34;5118820;28;20023;-72
2023/06/11 03:48:32;;;;;;;15.20;10.15;;;;;;;18.99;100.00;100427.91;5134559;28;20023;-72
2023/06/11 03:51:18;;;;;;;15.68;10.25;;;;;;;19.35;100.00;100424.97;5133828;28;20027;-72
2023/06/11 03:54:04;;;;;;;16.27;10.25;;;;;;;19.51;100.00;100424.91;5134668;28;20034;-71
2023/06/11 03:56:50;;;;;;;18.02;10.90;;;;;;;19.71;100.00;100430.78;5119006;28;20107;-72
2023/06/11 03:59:35;;;;;;;15.70;9.57;;;;;;;20.00;100.00;100429.91;5133612;28;20448;-72
2023/06/11 04:02:21;;;;;;;15.63;10.20;;;;;;;20.44;100.00;100425.41;5119831;28;20026;-73
2023/06/11 04:05:07;;;;;;;24.92;10.38;;;;;;;20.49;100.00;100425.97;5134413;28;20050;-72
2023/06/11 04:07:53;;;;;;;15.73;9.93;;;;;;;20.63;100.00;100433.06;5133660;28;20095;-72
2023/06/11 04:10:38;;;;;;;14.38;10.95;;;;;;;20.07;100.00;100433.91;5134159;28;20031;-72
2023/06/11 04:13:24;;;;;;;15.45;11.02;;;;;;;19.95;100.00;100429.31;5134347;28;20374;-72
2023/06/11 04:16:10;;;;;;;20.05;11.63;;;;;;;20.28;100.00;100440.59;5131764;27;20034;-71
2023/06/11 04:18:56;;;;;;;15.82;11.65;;;;;;;20.79;100.00;100452.47;5117977;28;20039;-72
2023/06/11 04:21:41;;;;;;;15.55;12.48;;;;;;;20.58;100.00;100457.31;5133636;28;20062;-73
2023/06/11 04:24:27;;;;;;;16.17;11.73;;;;;;;20.55;100.00;100457.53;5135138;27;20109;-72
2023/06/11 04:27:13;;;;;;;17.90;11.40;;;;;;;20.78;100.00;100472.06;5137668;27;20038;-72
2023/06/11 04:30:00;;;;;;;21.35;12.43;;;;;;;20.99;100.00;100474.25;5136842;27;20027;-72
2023/06/11 04:32:47;;;;;;;20.98;12.25;;;;;;;21.00;100.00;100481.28;5132298;27;20034;-72
2023/06/11 04:35:34;;;;;;;19.85;12.27;;;;;;;20.97;100.00;100477.97;5150441;27;20027;-72
2023/06/11 04:38:19;;;;;;;18.45;12.32;;;;;;;21.13;100.00;100489.38;5157287;27;20027;-72
2023/06/11 04:41:06;;;;;;;14.68;10.43;;;;;;;20.70;100.00;100474.34;5144001;27;20018;-72
2023/06/11 04:43:52;;;;;;;13.93;9.90;;;;;;;21.10;100.00;100469.06;5157770;27;20364;-72
2023/06/11 04:46:38;;;;;;;14.77;10.88;;;;;;;21.12;100.00;100472.50;5158442;27;20479;-72
2023/06/11 04:49:24;;;;;;;13.07;10.80;;;;;;;21.48;100.00;100483.44;5158042;27;20033;-73
2023/06/11 04:52:10;;;;;;;18.58;10.95;;;;;;;21.26;100.00;100480.44;5157233;27;20030;-71
2023/06/11 04:54:55;;;;;;;18.73;12.18;;;;;;;21.46;100.00;100485.34;5158481;27;20144;-72
2023/06/11 04:57:41;;;;;;;16.75;11.98;;;;;;;21.29;100.00;100496.25;5157446;27;20034;-73
2023/06/11 05:00:28;;;;;;;17.40;11.57;;;;;;;21.49;100.00;100522.47;5158346;27;20443;-73
2023/06/11 05:03:18;;;;;;;17.42;12.10;;;;;;;21.21;100.00;100506.53;5157623;27;20341;-72
2023/06/11 05:06:04;;;;;;;25.33;12.25;;;;;;;21.20;100.00;100498.66;5157367;27;20030;-72
2023/06/11 05:08:52;;;;;;;14.90;11.60;;;;;;;21.16;100.00;100491.81;5157271;27;20057;-73
2023/06/11 05:11:38;;;;;;;17.30;11.00;;;;;;;21.21;100.00;100490.56;5153045;27;20443;-73
2023/06/11 05:14:24;;;;;;;14.70;11.07;;;;;;;21.81;100.00;100497.22;5158462;27;20026;-72
2023/06/11 05:17:10;;;;;;;18.67;11.30;;;;;;;21.70;100.00;100494.41;5158150;27;20041;-72
2023/06/11 05:19:55;;;;;;;19.67;12.45;;;;;;;21.98;100.00;100501.44;5157091;27;20046;-72
2023/06/11 05:22:41;;;;;;;15.55;10.77;;;;;;;21.81;100.00;100497.22;5164097;27;20022;-73
2023/06/11 05:25:31;;;;;;;15.85;12.02;;;;;;;21.60;100.00;100495.09;5172335;27;20048;-73
2023/06/11 05:28:17;;;;;;;15.43;10.82;;;;;;;22.38;100.00;100495.09;5157657;27;20118;-73
2023/06/11 05:31:04;;;;;;;15.68;11.98;;;;;;;21.50;100.00;100497.50;5158271;27;20030;-74
2023/06/11 05:33:50;;;;;;;19.30;11.75;;;;;;;21.40;100.00;100503.53;5157561;27;20054;-72
2023/06/11 05:36:36;;;;;;;17.02;11.77;;;;;;;21.81;100.00;100499.91;5157081;27;20065;-72
2023/06/11 05:39:22;;;;;;;16.00;11.57;;;;;;;22.11;100.00;100510.31;5157800;27;20665;-72
2023/06/11 05:42:08;;;;;;;14.98;10.68;;;;;;;21.98;100.00;100514.78;5157497;27;20391;-73
2023/06/11 05:44:53;;;;;;;19.48;9.88;;;;;;;22.26;100.00;100510.13;5157554;27;20356;-72
2023/06/11 05:47:39;;;;;;;22.45;10.90;;;;;;;22.56;100.00;100507.19;5157163;27;20026;-72
2023/06/11 05:50:25;;;;;;;23.25;12.82;;;;;;;22.02;100.00;100503.78;5156444;27;20389;-72
2023/06/11 05:53:11;;;;;;;20.77;11.35;;;;;;;22.21;100.00;100509.59;5157380;27;20031;-72
2023/06/11 05:55:57;;;;;;;16.92;10.63;;;;;;;22.63;100.00;100508.47;5141918;27;20019;-71
2023/06/11 05:58:42;;;;;;;18.67;11.10;;;;;;;22.48;100.00;100501.50;5156947;27;20034;-71
2023/06/11 06:01:29;;;;;;;16.13;10.90;;;;;;;22.42;100.00;100504.59;5157324;27;20100;-72
2023/06/11 06:04:15;;;;;;;15.43;11.35;;;;;;;22.42;100.00;100504.59;5156448;27;20073;-73
2023/06/11 06:07:01;;;;;;;14.32;10.63;;;;;;;22.55;100.00;100508.16;5142356;27;20034;-71
2023/06/11 06:09:47;;;;;;;14.40;10.10;;;;;;;22.81;100.00;100510.69;5156526;27;20114;-73
2023/06/11 06:12:32;;;;;;;16.17;10.13;;;;;;;22.43;100.00;100509.81;5138368;27;20031;-73
2023/06/11 06:15:18;;;;;;;15.82;10.32;;;;;;;22.95;100.00;100504.38;5135921;27;20070;-72
2023/06/11 06:18:05;;;;;;;13.80;9.82;;;;;;;23.07;100.00;100512.34;5134927;27;20022;-72
2023/06/11 06:20:50;;;;;;;13.60;9.75;;;;;;;23.26;100.00;100506.53;5134903;27;20047;-72
2023/06/11 06:23:36;;;;;;;16.30;10.55;;;;;;;22.80;100.00;100517.00;5135481;27;20066;-77
2023/06/11 06:26:23;;;;;;;13.65;9.75;;;;;;;23.15;100.00;100509.13;5135092;27;20019;-72
2023/06/11 06:29:09;;;;;;;13.32;10.02;;;;;;;22.99;100.00;100511.19;5135621;27;20041;-72
2023/06/11 06:31:55;;;;;;;12.57;9.50;;;;;;;23.10;100.00;100508.59;5134999;27;20023;-72
2023/06/11 06:34:41;;;;;;;15.38;9.45;;;;;;;23.36;100.00;100499.56;5135750;27;20126;-71
2023/06/11 06:37:27;;;;;;;14.52;9.95;;;;;;;23.28;100.00;100509.97;5135664;27;20031;-72
2023/06/11 06:40:13;;;;;;;15.05;10.85;;;;;;;23.38;100.00;100508.31;5135037;27;20457;-72
2023/06/11 06:42:59;;;;;;;14.00;10.15;;;;;;;23.47;100.00;100504.13;5135046;27;20034;-72
2023/06/11 06:45:45;;;;;;;15.13;9.90;;;;;;;23.68;100.00;100505.22;5135242;27;20034;-72
2023/06/11 06:48:32;;;;;;;13.30;10.55;;;;;;;24.13;100.00;100501.75;5134059;27;20027;-72
2023/06/11 06:51:20;;;;;;;16.02;10.05;;;;;;;24.08;100.00;100503.94;5135750;27;20038;-71
2023/06/11 06:54:05;;;;;;;14.23;9.75;;;;;;;24.50;100.00;100495.25;5135187;27;20023;-72
2023/06/11 06:56:51;;;;;;;15.52;10.00;;;;;;;24.11;100.00;100498.38;5135271;27;20042;-74
2023/06/11 06:59:37;;;;;;;14.15;9.32;;;;;;;24.24;100.00;100501.81;5135412;27;20444;-72
2023/06/11 07:02:23;;;;;;;14.18;9.00;;;;;;;24.66;100.00;100495.78;5134835;27;20027;-73
2023/06/11 07:05:10;;;;;;;16.77;9.55;;;;;;;25.03;100.00;100497.28;5134881;27;20023;-72
2023/06/11 07:07:55;;;;;;;14.35;9.55;;;;;;;25.23;100.00;100488.47;5135024;27;20360;-72
2023/06/11 07:10:42;;;;;;;17.17;9.13;;;;;;;25.61;100.00;100492.44;5136973;27;20027;-72
2023/06/11 07:13:28;;;;;;;15.43;8.93;;;;;;;25.48;100.00;100497.06;5140752;27;20426;-72
2023/06/11 07:16:14;;;;;;;19.83;10.02;;;;;;;25.38;100.00;100495.28;5154683;27;20123;-72
2023/06/11 07:19:00;;;;;;;13.88;9.23;;;;;;;24.89;100.00;100492.16;5140916;27;20051;-73
2023/06/11 07:21:45;;;;;;;13.27;8.82;;;;;;;25.63;100.00;100495.00;5155339;27;20046;-72
2023/06/11 07:24:31;;;;;;;16.70;9.65;;;;;;;25.99;100.00;100498.16;5155966;27;20049;-73
2023/06/11 07:27:17;;;;;;;25.20;10.02;;;;;;;26.10;100.00;100491.88;5139624;27;20019;-71
2023/06/11 07:30:03;;;;;;;15.77;8.77;;;;;;;26.51;100.00;100489.16;5154225;27;20034;-72
2023/06/11 07:32:50;;;;;;;15.73;8.23;;;;;;;26.72;98.37;100493.53;5139836;27;20406;-72
2023/06/11 07:35:36;;;;;;;11.07;8.07;;;;;;;26.82;98.58;100494.47;5155454;27;20125;-72
2023/06/11 07:38:22;;;;;;;15.07;7.65;;;;;;;27.04;95.72;100496.06;5155029;27;20019;-72
2023/06/11 07:41:08;;;;;;;14.27;7.95;;;;;;;27.05;95.79;100495.09;5138835;27;20026;-72
2023/06/11 07:43:53;;;;;;;20.80;7.68;;;;;;;26.84;95.58;100484.41;5140147;27;20363;-72
2023/06/11 07:46:39;;;;;;;17.27;8.32;;;;;;;27.26;91.44;100494.06;5155188;27;20101;-72
2023/06/11 07:49:25;;;;;;;15.70;7.30;;;;;;;27.65;91.14;100494.13;5140115;27;20114;-72
2023/06/11 07:52:11;;;;;;;13.25;8.45;;;;;;;27.67;93.20;100493.00;5136932;27;20485;-72
2023/06/11 07:54:57;;;;;;;11.20;7.13;;;;;;;27.73;89.24;100492.44;5119339;28;20034;-73
2023/06/11 07:57:43;;;;;;;14.98;6.85;;;;;;;27.98;88.74;100497.28;5134944;28;20031;-73
2023/06/11 08:00:28;;;;;;;13.70;7.75;;;;;;;27.60;89.28;100491.84;5137189;27;20034;-72
2023/06/11 08:03:16;;;;;;;13.32;7.85;;;;;;;28.15;86.16;100493.88;5138384;27;20488;-73
2023/06/11 08:06:02;;;;;;;10.70;7.15;;;;;;;28.53;83.79;100493.81;5123030;27;20039;-72
2023/06/11 08:08:48;;;;;;;14.82;7.60;;;;;;;29.05;79.58;100493.22;5138425;27;20140;-73
2023/06/11 08:11:33;;;;;;;13.75;7.90;;;;;;;28.26;82.73;100499.13;5131533;27;20417;-72
2023/06/11 08:14:20;;;;;;;10.93;7.03;;;;;;;28.75;83.16;100488.09;5137861;27;20517;-72
2023/06/11 08:17:08;;;;;;;15.57;8.15;;;;;;;28.48;82.59;100496.09;5138518;27;20027;-72
2023/06/11 08:19:53;;;;;;;13.55;6.97;;;;;;;29.07;79.31;100499.34;5137858;27;20358;-72
2023/06/11 08:22:40;;;;;;;42.20;8.27;;;;;;;29.42;78.58;100501.28;5137851;27;20371;-72
2023/06/11 08:25:25;;;;;;;9.52;6.70;;;;;;;29.75;74.31;100501.50;5138772;27;20097;-72
2023/06/11 08:28:11;;;;;;;10.80;6.40;;;;;;;29.56;74.26;100496.19;5138099;27;20338;-72
2023/06/11 08:30:57;;;;;;;17.45;7.50;;;;;;;29.78;72.73;100487.66;5123130;27;20050;-72
2023/06/11 08:33:43;;;;;;;13.82;6.85;;;;;;;29.92;73.18;100488.97;5124055;27;20020;-72
2023/06/11 08:36:28;;;;;;;13.45;6.85;;;;;;;30.36;71.70;100486.16;5130450;27;20046;-72
2023/06/11 08:39:14;;;;;;;17.38;7.18;;;;;;;30.63;68.85;100485.16;5137615;27;20045;-73
2023/06/11 08:42:00;;;;;;;15.55;7.13;;;;;;;31.23;66.14;100490.41;5136272;27;20016;-72
2023/06/11 08:44:46;;;;;;;10.40;6.68;;;;;;;30.82;65.29;100495.78;5123703;27;20023;-72
2023/06/11 08:47:36;;;;;;;10.73;6.82;;;;;;;30.43;67.38;100489.94;5137245;27;20042;-72
2023/06/11 08:50:24;;;;;;;14.88;7.47;;;;;;;30.08;69.47;100492.69;5129720;27;20031;-72
2023/06/11 08:53:12;;;;;;;16.60;6.75;;;;;;;30.87;65.99;100485.34;5137664;27;20355;-72
2023/06/11 08:55:58;;;;;;;13.05;6.95;;;;;;;30.45;66.65;100485.22;5137262;27;20042;-72
2023/06/11 08:58:46;;;;;;;10.88;6.70;;;;;;;30.56;66.04;100484.97;5112901;28;20023;-72
2023/06/11 09:01:32;;;;;;;9.55;6.47;;;;;;;30.26;67.49;100481.88;5120739;27;20106;-72
2023/06/11 09:04:18;;;;;;;12.90;6.90;;;;;;;30.33;67.02;100486.47;5137302;27;20035;-72
2023/06/11 09:07:05;;;;;;;9.98;7.05;;;;;;;30.24;68.83;100481.16;5137557;27;20431;-72
2023/06/11 09:10:01;;;;;;;11.15;6.75;;;;;;;30.73;66.38;100483.22;5122922;27;20067;-72
2023/06/11 09:12:47;;;;;;;10.32;6.68;;;;;;;30.56;65.96;100479.53;5141128;27;20042;-73
2023/06/11 09:15:33;;;;;;;11.85;7.07;;;;;;;31.03;63.93;100480.00;5123187;27;20027;-73
2023/06/11 09:18:22;;;;;;;10.98;6.88;;;;;;;31.07;62.77;100473.25;5128153;27;20110;-72
2023/06/11 09:21:11;;;;;;;15.63;6.90;;;;;;;31.03;62.86;100472.69;5137423;27;20081;-72
2023/06/11 09:24:07;;;;;;;14.45;8.60;;;;;;;31.38;60.33;100460.00;5136631;27;20023;-73
2023/06/11 09:26:55;;;;;;;14.77;7.05;;;;;;;30.66;63.60;100455.91;5136887;27;20074;-72
2023/06/11 09:29:43;;;;;;;12.77;7.00;;;;;;;30.26;66.12;100457.53;5139503;27;20515;-72
2023/06/11 09:32:29;;;;;;;13.55;7.05;;;;;;;30.69;64.65;100455.63;5136892;27;20037;-72
2023/06/11 09:35:16;;;;;;;12.75;7.05;;;;;;;30.52;65.02;100455.66;5135841;27;20041;-71
2023/06/11 09:38:03;;;;;;;14.70;7.07;;;;;;;30.58;64.44;100458.59;5134081;27;20030;-72
2023/06/11 09:40:54;;;;;;;16.02;7.10;;;;;;;30.37;63.63;100457.25;5136970;27;20034;-72
2023/06/11 09:43:40;;;;;;;12.48;7.65;;;;;;;30.31;64.71;100450.66;5123895;27;20035;-72
2023/06/11 09:46:27;;;;;;;18.10;7.25;;;;;;;30.86;62.17;100460.13;5136669;27;20493;-72
2023/06/11 09:49:13;;;;;;;12.15;6.93;;;;;;;30.90;62.86;100456.06;5121612;27;20027;-72
2023/06/11 09:51:59;;;;;;;10.80;6.70;;;;;;;30.70;62.17;100454.63;5136226;27;20107;-72
2023/06/11 09:54:49;;;;;;;10.80;7.00;;;;;;;31.16;60.46;100454.16;5124298;27;20015;-73
2023/06/11 09:57:40;;;;;;;12.45;6.80;;;;;;;30.36;61.30;100448.31;5121939;27;20037;-72
2023/06/11 10:00:25;;;;;;;7.57;6.28;;;;;;;30.66;61.94;100455.91;5136407;27;20027;-72
2023/06/11 10:03:11;;;;;;;11.60;6.38;;;;;;;30.72;59.30;100446.34;5136640;27;20474;-72
2023/06/11 10:05:58;;;;;;;13.38;6.72;;;;;;;30.93;60.66;100442.22;5136834;27;20042;-73
2023/06/11 10:08:48;;;;;;;11.88;6.55;;;;;;;31.22;58.80;100441.84;5136654;27;20023;-72
2023/06/11 10:11:38;;;;;;;11.32;6.57;;;;;;;31.07;58.89;100441.59;5136483;27;20077;-73
2023/06/11 10:14:24;;;;;;;9.75;6.22;;;;;;;31.66;57.58;100429.72;5121490;27;20062;-73
2023/06/11 10:17:10;;;;;;;8.85;5.70;;;;;;;31.12;56.08;100430.28;5136389;27;20027;-72
2023/06/11 10:19:56;;;;;;;11.52;6.55;;;;;;;30.90;58.58;100429.00;5121657;27;20039;-72
2023/06/11 10:22:42;;;;;;;12.13;6.10;;;;;;;30.89;57.62;100423.75;5136265;27;20011;-72
2023/06/11 10:25:39;;;;;;;9.73;5.53;;;;;;;31.10;56.09;100422.31;5135889;27;20049;-73
2023/06/11 10:28:42;;;;;;;10.20;6.00;;;;;;;31.03;55.13;100423.97;5136654;27;20023;-73
2023/06/11 10:31:29;;;;;;;13.18;6.55;;;;;;;31.42;55.12;100414.31;5121330;27;20118;-72
2023/06/11 10:34:15;;;;;;;10.23;6.00;;;;;;;31.34;56.13;100408.88;5120389;27;20503;-72
2023/06/11 10:37:03;;;;;;;12.70;5.80;;;;;;;31.26;51.60;100413.44;5135452;27;20131;-72
2023/06/11 10:39:50;;;;;;;15.02;5.60;;;;;;;31.00;53.84;100418.91;5121181;27;20030;-73
2023/06/11 10:42:41;;;;;;;10.07;5.68;;;;;;;31.15;55.41;100411.84;5135746;27;20080;-72
2023/06/11 10:45:36;;;;;;;10.25;5.93;;;;;;;30.94;53.06;100411.44;5135313;27;20456;-72
2023/06/11 10:48:29;;;;;;;11.95;5.90;;;;;;;30.94;55.40;100411.44;5135446;27;20035;-72
2023/06/11 10:51:15;;;;;;;10.65;5.72;;;;;;;31.27;53.78;100405.13;5135276;27;20031;-71
2023/06/11 10:54:02;;;;;;;13.13;5.72;;;;;;;31.33;54.38;100405.50;5119775;27;20358;-72
2023/06/11 10:56:48;;;;;;;12.90;5.93;;;;;;;31.04;54.05;100395.94;5120442;27;20030;-72
2023/06/11 10:59:36;;;;;;;11.02;5.50;;;;;;;31.50;52.41;100393.66;5135518;27;20019;-72
2023/06/11 11:02:23;;;;;;;15.20;5.63;;;;;;;31.54;51.97;100392.31;5135103;27;20352;-72
2023/06/11 11:05:09;;;;;;;7.90;5.05;;;;;;;30.97;51.66;100388.59;5121216;27;20050;-72
2023/06/11 11:07:55;;;;;;;12.75;5.07;;;;;;;30.85;51.01;100388.06;5134854;27;20172;-73
2023/06/11 11:10:42;;;;;;;15.85;5.22;;;;;;;32.02;48.97;100389.63;5134561;27;20405;-71
2023/06/11 11:13:31;;;;;;;9.98;4.80;;;;;;;32.07;48.19;100387.25;5134830;27;20128;-73
2023/06/11 11:16:19;;;;;;;8.90;5.22;;;;;;;31.88;49.75;100380.31;5134065;27;20035;-72
2023/06/11 11:19:05;;;;;;;9.85;5.68;;;;;;;31.78;51.98;100384.22;5135129;27;20376;-73
2023/06/11 11:21:51;;;;;;;8.00;5.45;;;;;;;31.80;50.60;100374.91;5135057;27;20352;-72
2023/06/11 11:24:37;;;;;;;11.35;5.15;;;;;;;31.69;51.42;100360.84;5120437;27;20059;-72
2023/06/11 11:27:23;;;;;;;11.80;5.00;;;;;;;31.46;49.73;100366.06;5134936;27;20034;-72
2023/06/11 11:30:09;;;;;;;9.18;4.97;;;;;;;31.57;49.29;100357.59;5134212;27;20034;-72
2023/06/11 11:32:56;;;;;;;12.45;5.00;;;;;;;31.16;49.22;100347.72;5134690;27;20027;-72
2023/06/11 11:35:49;;;;;;;9.93;5.07;;;;;;;31.57;49.22;100346.75;5134174;27;20083;-72
2023/06/11 11:38:36;;;;;;;8.43;4.93;;;;;;;32.27;48.77;100347.88;5135128;28;20463;-73
2023/06/11 11:41:22;;;;;;;8.07;5.32;;;;;;;31.63;47.79;100339.81;5126891;28;20039;-72
2023/06/11 11:44:08;;;;;;;7.80;5.50;;;;;;;30.69;49.55;100339.31;5134739;28;20046;-73
2023/06/11 11:46:56;;;;;;;8.35;5.00;;;;;;;31.59;49.01;100338.47;5133415;28;20432;-71
2023/06/11 11:49:44;;;;;;;16.88;5.20;;;;;;;31.72;49.82;100328.81;5134292;28;20026;-71
2023/06/11 11:52:31;;;;;;;12.98;5.43;;;;;;;31.48;48.50;100328.84;5134905;28;20019;-71
2023/06/11 11:55:17;;;;;;;10.05;4.80;;;;;;;31.95;47.86;100334.41;5134177;28;20106;-71
2023/06/11 11:58:03;;;;;;;11.00;5.15;;;;;;;31.79;48.86;100329.00;5135242;28;20458;-72
2023/06/11 12:00:58;;;;;;;11.55;5.15;;;;;;;32.06;46.97;100334.06;5119563;28;20027;-72
2023/06/11 12:03:55;;;;;;;8.95;4.97;;;;;;;32.29;45.63;100333.16;5133876;28;20037;-71
2023/06/11 12:06:40;;;;;;;14.63;5.28;;;;;;;32.37;45.69;100337.69;5129053;28;20520;-71
2023/06/11 12:09:26;;;;;;;10.98;5.00;;;;;;;32.61;44.78;100334.88;5119125;28;20113;-72
2023/06/11 12:12:12;;;;;;;10.38;4.95;;;;;;;32.29;43.63;100330.44;5134122;28;20039;-72
2023/06/11 12:14:57;;;;;;;8.50;4.43;;;;;;;33.00;41.74;100328.44;5134411;28;20023;-71
2023/06/11 12:17:44;;;;;;;8.43;4.72;;;;;;;32.76;41.32;100331.28;5134444;28;20338;-72
2023/06/11 12:20:30;;;;;;;7.82;4.97;;;;;;;32.88;41.49;100334.44;5136057;27;20075;-71
2023/06/11 12:23:16;;;;;;;11.70;5.03;;;;;;;32.77;42.29;100340.25;5149552;27;20018;-72
2023/06/11 12:26:03;;;;;;;12.73;5.30;;;;;;;32.72;42.98;100346.22;5154756;27;20458;-72
2023/06/11 12:28:49;;;;;;;11.73;5.32;;;;;;;32.37;43.79;100348.53;5140572;27;20034;-71
2023/06/11 12:31:36;;;;;;;10.60;5.40;;;;;;;33.19;42.58;100341.53;5140192;27;20023;-71
2023/06/11 12:34:21;;;;;;;10.27;4.80;;;;;;;33.25;40.60;100356.28;5154929;27;20023;-73
2023/06/11 12:37:08;;;;;;;10.88;4.72;;;;;;;33.25;39.07;100350.84;5155338;27;20034;-72
2023/06/11 12:39:53;;;;;;;9.50;4.47;;;;;;;33.06;39.06;100360.28;5152672;27;20034;-72
2023/06/11 12:42:39;;;;;;;16.13;4.80;;;;;;;32.46;39.37;100350.25;5139648;27;20014;-73